Time;durP1;ratioP1;P1;durP2;ratioP2;P2;SDS_P1;SDS_P2;PMS_P1;PMS_P2;Temp;Humidity;BMP_temperature;BMP_pressure;BME280_temperature;BME280_humidity;BME280_pressure;Samples;Min_cycle;Max_cycle;Signal;HPM_P1;HPM_P2
2023/06/01 00:00:32;;;;;;;6.23;3.00;;;11.80;67.20;;;;;;2063150;28;20236;-69
2023/06/01 00:01:33;;;;;;;6.25;3.17;;;11.70;67.60;;;;;;2059831;28;20644;-69
2023/06/01 00:02:34;;;;;;;5.85;3.17;;;11.70;68.10;;;;;;2068400;28;20233;-68
2023/06/01 00:03:36;;;;;;;4.90;3.28;;;11.70;67.80;;;;;;2066232;28;20276;-69
2023/06/01 00:04:40;;;;;;;4.38;2.78;;;11.70;67.70;;;;;;2060326;28;20229;-69
2023/06/01 00:05:41;;;;;;;4.85;2.80;;;11.70;67.80;;;;;;2060657;28;20222;-69
2023/06/01 00:06:44;;;;;;;5.95;2.83;;;11.70;67.70;;;;;;2061000;28;20735;-69
2023/06/01 00:07:44;;;;;;;4.47;2.90;;;11.80;67.60;;;;;;2058008;28;20232;-69
2023/06/01 00:08:45;;;;;;;3.67;2.83;;;11.80;67.60;;;;;;2055431;28;20233;-69
2023/06/01 00:09:46;;;;;;;4.97;3.10;;;11.80;67.70;;;;;;2063340;28;20740;-69
2023/06/01 00:10:47;;;;;;;5.67;2.90;;;11.80;67.80;;;;;;2056247;28;20238;-70
2023/06/01 00:11:48;;;;;;;5.75;2.70;;;11.80;68.30;;;;;;2056140;28;20238;-69
2023/06/01 00:12:49;;;;;;;4.97;3.00;;;11.60;68.40;;;;;;2054801;28;20223;-69
2023/06/01 00:13:50;;;;;;;3.97;3.10;;;11.60;68.60;;;;;;2052088;28;20227;-69
2023/06/01 00:14:51;;;;;;;6.15;3.08;;;11.50;68.50;;;;;;2057885;28;20235;-69
2023/06/01 00:15:52;;;;;;;3.97;3.10;;;11.60;68.80;;;;;;2054941;28;20587;-69
2023/06/01 00:16:53;;;;;;;5.57;3.22;;;11.60;69.10;;;;;;2058814;28;20243;-69
2023/06/01 00:17:53;;;;;;;3.80;2.80;;;11.60;68.90;;;;;;2057645;28;20379;-69
2023/06/01 00:18:56;;;;;;;9.17;3.10;;;11.60;69.00;;;;;;2061449;28;20226;-69
2023/06/01 00:19:57;;;;;;;5.80;3.75;;;11.60;70.10;;;;;;2061583;28;20685;-69
2023/06/01 00:21:00;;;;;;;6.67;3.63;;;11.60;69.20;;;;;;2054295;28;20223;-69
2023/06/01 00:22:00;;;;;;;7.18;3.33;;;11.50;69.50;;;;;;2053138;28;20224;-72
2023/06/01 00:23:02;;;;;;;4.83;3.10;;;11.50;69.60;;;;;;2062786;28;20692;-70
2023/06/01 00:24:03;;;;;;;4.45;2.70;;;11.50;69.50;;;;;;2063492;28;20286;-69
2023/06/01 00:25:08;;;;;;;8.95;3.15;;;11.50;69.40;;;;;;2060107;28;20262;-69
2023/06/01 00:26:08;;;;;;;5.90;3.22;;;11.50;69.50;;;;;;2068685;28;20194;-69
2023/06/01 00:27:09;;;;;;;5.70;2.93;;;11.50;69.60;;;;;;2062064;28;20214;-69
2023/06/01 00:28:10;;;;;;;3.80;3.20;;;11.50;71.00;;;;;;2060998;28;20604;-69
2023/06/01 00:29:11;;;;;;;5.40;3.10;;;11.50;70.00;;;;;;2057138;28;20209;-69
2023/06/01 00:30:12;;;;;;;4.37;3.30;;;11.50;70.30;;;;;;2062872;28;20190;-69
2023/06/01 00:31:13;;;;;;;4.88;3.00;;;11.50;70.50;;;;;;2057285;28;20202;-70
2023/06/01 00:32:14;;;;;;;5.63;3.13;;;11.40;70.50;;;;;;2064603;28;20697;-69
2023/06/01 00:33:15;;;;;;;4.05;3.20;;;11.50;70.50;;;;;;2059469;28;20302;-69
2023/06/01 00:34:16;;;;;;;4.63;3.03;;;11.40;70.80;;;;;;2062495;28;20697;-69
2023/06/01 00:35:16;;;;;;;5.00;3.20;;;11.40;71.50;;;;;;2067423;28;20186;-69
2023/06/01 00:36:17;;;;;;;5.17;3.33;;;11.30;71.60;;;;;;2054270;28;20284;-71
2023/06/01 00:37:18;;;;;;;4.57;3.45;;;11.30;71.60;;;;;;2055407;28;20639;-68
2023/06/01 00:38:19;;;;;;;5.32;3.00;;;11.30;71.70;;;;;;2063281;28;20773;-69
2023/06/01 00:39:20;;;;;;;4.17;2.90;;;11.30;71.60;;;;;;2055393;28;20241;-69
2023/06/01 00:40:21;;;;;;;5.70;3.27;;;11.40;71.60;;;;;;2055453;28;20242;-69
2023/06/01 00:41:22;;;;;;;5.63;2.90;;;11.40;71.40;;;;;;2061333;28;20230;-69
2023/06/01 00:42:22;;;;;;;5.23;3.30;;;11.40;71.50;;;;;;2058911;28;20231;-69
2023/06/01 00:43:23;;;;;;;3.30;3.00;;;11.40;71.30;;;;;;2067831;28;20332;-69
2023/06/01 00:44:24;;;;;;;4.53;3.13;;;11.40;71.30;;;;;;2061582;28;20279;-69
2023/06/01 00:45:25;;;;;;;4.33;3.20;;;11.40;71.60;;;;;;2055324;28;20230;-69
2023/06/01 00:46:27;;;;;;;4.33;2.87;;;11.30;71.80;;;;;;2060052;28;20718;-69
2023/06/01 00:47:28;;;;;;;5.18;3.30;;;11.30;71.80;;;;;;2056585;28;20226;-69
2023/06/01 00:48:29;;;;;;;5.40;2.97;;;11.30;71.50;;;;;;2060998;28;20249;-68
2023/06/01 00:49:29;;;;;;;5.32;3.60;;;11.30;71.80;;;;;;2064081;28;20233;-69
2023/06/01 00:50:31;;;;;;;5.57;3.80;;;11.20;72.00;;;;;;2067885;28;20766;-69
2023/06/01 00:51:32;;;;;;;5.03;3.33;;;11.30;72.10;;;;;;2051280;28;20238;-69
2023/06/01 00:52:34;;;;;;;6.20;3.13;;;11.30;72.80;;;;;;2055243;28;20238;-69
2023/06/01 00:53:35;;;;;;;5.78;3.13;;;11.10;72.60;;;;;;2055203;28;20617;-68
2023/06/01 00:54:36;;;;;;;6.40;3.57;;;11.10;73.90;;;;;;2053009;28;20239;-68
2023/06/01 00:55:38;;;;;;;5.68;3.50;;;11.20;72.60;;;;;;2058483;28;20242;-71
2023/06/01 00:56:39;;;;;;;5.30;3.10;;;11.30;72.90;;;;;;2059681;28;20257;-69
2023/06/01 00:57:42;;;;;;;3.77;3.07;;;11.30;72.80;;;;;;2062342;28;20230;-68
2023/06/01 00:58:43;;;;;;;6.43;3.13;;;11.30;72.80;;;;;;2066670;28;20264;-69
2023/06/01 00:59:44;;;;;;;5.07;3.10;;;11.30;72.70;;;;;;2064208;28;21110;-69
2023/06/01 01:00:48;;;;;;;4.60;3.43;;;11.30;73.00;;;;;;2059778;28;20221;-69
2023/06/01 01:01:48;;;;;;;3.80;2.95;;;11.20;73.20;;;;;;2063017;28;20704;-69
2023/06/01 01:02:51;;;;;;;8.47;3.67;;;11.20;73.40;;;;;;2056405;28;20295;-69
2023/06/01 01:03:57;;;;;;;5.57;3.40;;;11.30;73.30;;;;;;2064524;28;20237;-69
2023/06/01 01:04:59;;;;;;;5.82;2.90;;;11.20;73.10;;;;;;2052008;28;20226;-69
2023/06/01 01:06:41;;;;;;;6.43;3.55;;;11.20;73.70;;;;;;2040701;28;20231;-70
2023/06/01 01:08:03;;;;;;;4.97;3.10;;;11.10;74.20;;;;;;2054350;28;20236;-69
2023/06/01 01:09:33;;;;;;;6.38;3.03;;;11.10;74.70;;;;;;2061506;28;20221;-70
2023/06/01 01:11:01;;;;;;;3.88;3.00;;;11.00;75.10;;;;;;2063762;28;20333;-67
2023/06/01 01:12:34;;;;;;;4.72;2.88;;;11.00;75.50;;;;;;2047835;28;20310;-70
2023/06/01 01:13:48;;;;;;;4.95;3.35;;;10.90;76.00;;;;;;2059546;28;20311;-68
2023/06/01 01:15:30;;;;;;;5.82;3.78;;;10.80;77.70;;;;;;2062555;28;20237;-69
2023/06/01 01:17:02;;;;;;;6.65;3.40;;;10.70;77.10;;;;;;2061632;28;20610;-69
2023/06/01 01:18:13;;;;;;;4.38;3.30;;;10.70;77.40;;;;;;2045387;28;20241;-69
2023/06/01 01:19:44;;;;;;;4.68;3.53;;;10.70;77.30;;;;;;2055182;28;20698;-69
2023/06/01 01:21:00;;;;;;;8.20;3.67;;;10.70;76.90;;;;;;2060944;28;20234;-69
2023/06/01 01:22:43;;;;;;;4.22;3.10;;;10.80;77.00;;;;;;2049030;28;20223;-69
2023/06/01 01:24:23;;;;;;;6.68;4.78;;;10.80;77.10;;;;;;2058270;28;20390;-68
2023/06/01 01:25:50;;;;;;;4.75;3.40;;;10.80;77.40;;;;;;2057377;28;20811;-68
2023/06/01 01:27:14;;;;;;;6.70;3.35;;;10.70;77.60;;;;;;2055701;28;20237;-69
2023/06/01 01:28:41;;;;;;;4.43;3.33;;;10.70;78.10;;;;;;2038996;28;20234;-69
2023/06/01 01:29:43;;;;;;;5.97;3.22;;;10.70;78.50;;;;;;2054704;28;20238;-69
2023/06/01 01:30:46;;;;;;;5.45;3.28;;;10.70;78.70;;;;;;2052674;28;20223;-69
2023/06/01 01:31:50;;;;;;;9.75;3.58;;;10.60;78.40;;;;;;2060471;28;20244;-69
2023/06/01 01:32:51;;;;;;;5.43;3.35;;;10.70;78.50;;;;;;2046968;28;20239;-69
2023/06/01 01:33:55;;;;;;;4.53;3.23;;;10.70;78.50;;;;;;2048543;28;20243;-69
2023/06/01 01:34:58;;;;;;;5.93;3.67;;;10.70;78.50;;;;;;2058227;28;20230;-69
2023/06/01 01:36:03;;;;;;;3.88;3.08;;;10.70;78.00;;;;;;2052017;28;20202;-71
2023/06/01 01:37:04;;;;;;;3.95;3.13;;;10.70;78.00;;;;;;2049573;28;20274;-69
2023/06/01 01:38:05;;;;;;;4.82;3.30;;;10.70;77.90;;;;;;2054097;28;20675;-68
2023/06/01 01:39:05;;;;;;;5.73;3.80;;;10.70;78.10;;;;;;2062106;28;20201;-69
2023/06/01 01:40:07;;;;;;;4.80;3.77;;;10.70;78.20;;;;;;2057697;28;20636;-69
2023/06/01 01:41:08;;;;;;;6.50;3.78;;;10.70;78.50;;;;;;2054772;28;20189;-68
2023/06/01 01:42:09;;;;;;;6.70;3.50;;;10.60;78.80;;;;;;2057270;28;20217;-69
2023/06/01 01:43:10;;;;;;;7.17;3.83;;;10.60;79.10;;;;;;2052405;28;20653;-69
2023/06/01 01:44:11;;;;;;;5.78;3.88;;;10.50;79.50;;;;;;2044024;28;20180;-69
2023/06/01 01:45:13;;;;;;;6.32;3.50;;;10.60;80.00;;;;;;2044571;28;20210;-70
2023/06/01 01:46:21;;;;;;;7.03;3.58;;;10.50;80.00;;;;;;2056386;28;20253;-69
2023/06/01 01:47:35;;;;;;;3.78;3.13;;;10.60;80.00;;;;;;2064329;28;20260;-69
2023/06/01 01:48:45;;;;;;;7.78;3.95;;;10.60;79.70;;;;;;2064734;28;20279;-69
2023/06/01 01:49:58;;;;;;;5.43;3.63;;;10.60;80.30;;;;;;2056717;28;20238;-69
2023/06/01 01:51:06;;;;;;;4.30;3.45;;;10.60;80.00;;;;;;2059234;28;20229;-69
2023/06/01 01:52:18;;;;;;;5.18;3.80;;;10.60;79.90;;;;;;2052933;28;20316;-69
2023/06/01 01:53:20;;;;;;;4.18;3.33;;;10.60;79.70;;;;;;2048963;28;20187;-69
2023/06/01 01:54:21;;;;;;;5.28;3.47;;;10.60;79.30;;;;;;2054190;28;20227;-69
2023/06/01 01:55:25;;;;;;;5.97;3.38;;;10.50;79.80;;;;;;2056627;28;20260;-69
2023/06/01 01:56:27;;;;;;;5.38;3.70;;;10.50;80.30;;;;;;2055525;28;20280;-69
2023/06/01 01:57:29;;;;;;;4.32;3.22;;;10.40;80.80;;;;;;2064314;28;20232;-68
2023/06/01 01:58:31;;;;;;;5.65;3.38;;;10.30;81.40;;;;;;2067796;28;20315;-69
2023/06/01 01:59:32;;;;;;;4.80;3.33;;;10.30;82.20;;;;;;2064197;28;20635;-69
2023/06/01 02:00:34;;;;;;;7.10;3.72;;;10.30;82.30;;;;;;2064199;28;20336;-69
2023/06/01 02:01:36;;;;;;;5.63;3.65;;;10.30;82.80;;;;;;2072159;28;20233;-69
2023/06/01 02:02:39;;;;;;;5.38;3.10;;;10.30;83.00;;;;;;2060637;28;20331;-69
2023/06/01 02:03:40;;;;;;;5.60;3.65;;;10.40;82.50;;;;;;2063741;28;20287;-69
2023/06/01 02:04:43;;;;;;;6.05;3.40;;;10.50;82.30;;;;;;2068334;28;20241;-69
2023/06/01 02:05:44;;;;;;;4.50;3.40;;;10.40;82.00;;;;;;2054361;28;20222;-69
2023/06/01 02:06:45;;;;;;;4.97;3.67;;;10.50;81.60;;;;;;2052361;28;20696;-69
2023/06/01 02:07:46;;;;;;;6.87;3.27;;;10.50;82.30;;;;;;2060431;28;20286;-69
2023/06/01 02:08:47;;;;;;;5.57;3.73;;;10.60;81.00;;;;;;2054373;28;20234;-69
2023/06/01 02:09:47;;;;;;;5.43;3.40;;;10.60;80.70;;;;;;2048840;28;20329;-69
2023/06/01 02:10:49;;;;;;;4.93;3.70;;;10.50;80.90;;;;;;2052804;28;20248;-69
2023/06/01 02:11:49;;;;;;;6.07;3.92;;;10.60;81.00;;;;;;2050174;28;20689;-69
2023/06/01 02:12:50;;;;;;;5.70;3.43;;;10.50;81.20;;;;;;2056459;28;20237;-69
2023/06/01 02:13:51;;;;;;;5.57;3.45;;;10.50;81.50;;;;;;2058669;28;20239;-69
2023/06/01 02:14:52;;;;;;;4.43;3.67;;;10.50;81.50;;;;;;2057747;28;20273;-69
2023/06/01 02:15:53;;;;;;;5.43;4.20;;;10.50;81.40;;;;;;2055232;28;20230;-69
2023/06/01 02:16:55;;;;;;;7.57;4.30;;;10.50;81.30;;;;;;2063911;28;20230;-69
2023/06/01 02:17:56;;;;;;;6.18;4.03;;;10.50;81.40;;;;;;2069249;28;20695;-69
2023/06/01 02:18:58;;;;;;;6.68;3.63;;;10.50;81.50;;;;;;2055669;28;20748;-70
2023/06/01 02:19:59;;;;;;;4.28;3.55;;;10.50;81.70;;;;;;2055497;28;20317;-72
2023/06/01 02:21:00;;;;;;;6.18;4.20;;;10.50;81.70;;;;;;2061014;28;20189;-70
2023/06/01 02:22:02;;;;;;;4.17;3.40;;;10.60;81.10;;;;;;2063969;28;20209;-70
2023/06/01 02:23:02;;;;;;;7.03;3.55;;;10.60;81.30;;;;;;2056937;28;20217;-69
2023/06/01 02:24:07;;;;;;;6.47;3.47;;;10.60;81.30;;;;;;2060786;28;20264;-69
2023/06/01 02:25:08;;;;;;;8.00;3.75;;;10.60;81.30;;;;;;2054944;28;20246;-69
2023/06/01 02:26:10;;;;;;;6.65;3.63;;;10.60;81.20;;;;;;2056451;28;20198;-69
2023/06/01 02:27:10;;;;;;;6.30;3.92;;;10.50;81.40;;;;;;2059423;28;20179;-69
2023/06/01 02:28:11;;;;;;;4.87;3.63;;;10.50;81.90;;;;;;2070243;28;20253;-69
2023/06/01 02:29:13;;;;;;;5.50;3.63;;;10.50;82.00;;;;;;2067771;28;20593;-69
2023/06/01 02:30:14;;;;;;;6.53;3.25;;;10.50;81.90;;;;;;2053678;28;20264;-68
2023/06/01 02:31:15;;;;;;;4.07;3.67;;;10.50;82.70;;;;;;2056358;28;20191;-69
2023/06/01 02:32:15;;;;;;;6.17;3.73;;;10.50;81.40;;;;;;2059986;28;20533;-69
2023/06/01 02:33:17;;;;;;;5.20;3.80;;;10.50;81.60;;;;;;2060806;28;20187;-71
2023/06/01 02:34:18;;;;;;;6.88;3.90;;;10.50;81.90;;;;;;2068924;28;20208;-69
2023/06/01 02:35:20;;;;;;;8.30;3.67;;;10.50;81.70;;;;;;2056803;28;20437;-69
2023/06/01 02:36:21;;;;;;;5.40;3.80;;;10.40;82.00;;;;;;2050090;28;20236;-69
2023/06/01 02:37:22;;;;;;;5.13;3.87;;;10.30;82.40;;;;;;2042557;29;20239;-69
2023/06/01 02:38:23;;;;;;;4.90;3.60;;;10.40;82.80;;;;;;2052666;28;20608;-69
2023/06/01 02:39:24;;;;;;;5.00;3.97;;;10.40;82.80;;;;;;2059890;28;20244;-69
2023/06/01 02:40:24;;;;;;;5.83;3.90;;;10.30;82.90;;;;;;2058530;28;20248;-69
2023/06/01 02:41:25;;;;;;;6.53;3.60;;;10.30;82.60;;;;;;2061497;28;20237;-69
2023/06/01 02:42:26;;;;;;;4.72;3.83;;;10.30;82.70;;;;;;2061768;28;20240;-69
2023/06/01 02:43:27;;;;;;;5.87;3.70;;;10.30;82.70;;;;;;2051562;28;20273;-69
2023/06/01 02:44:28;;;;;;;4.83;3.63;;;10.20;82.50;;;;;;2055483;28;20249;-69
2023/06/01 02:45:28;;;;;;;5.17;3.87;;;10.30;82.80;;;;;;2064090;28;20260;-69
2023/06/01 02:46:29;;;;;;;4.27;3.40;;;10.30;82.60;;;;;;2061366;28;20237;-69
2023/06/01 02:47:30;;;;;;;9.30;4.07;;;10.30;82.70;;;;;;2063339;28;20315;-69
2023/06/01 02:48:31;;;;;;;7.23;3.90;;;10.30;82.90;;;;;;2064053;28;20315;-69
2023/06/01 02:49:32;;;;;;;6.22;3.67;;;10.30;83.00;;;;;;2060768;28;20716;-69
2023/06/01 02:50:32;;;;;;;8.60;4.20;;;10.30;83.10;;;;;;2059821;28;20368;-69
2023/06/01 02:51:33;;;;;;;9.00;3.83;;;10.30;83.70;;;;;;2055155;28;20230;-69
2023/06/01 02:52:35;;;;;;;5.85;3.95;;;10.30;83.90;;;;;;2061232;28;20277;-68
2023/06/01 02:53:36;;;;;;;6.45;3.58;;;10.30;83.90;;;;;;2063784;28;20703;-68
2023/06/01 02:54:37;;;;;;;5.43;3.50;;;10.20;83.90;;;;;;2063376;28;20249;-69
2023/06/01 02:55:38;;;;;;;6.70;3.80;;;10.10;84.10;;;;;;2060862;28;20309;-69
2023/06/01 02:56:39;;;;;;;5.00;3.70;;;10.10;84.50;;;;;;2064074;28;20595;-69
2023/06/01 02:57:40;;;;;;;6.00;3.88;;;10.20;84.40;;;;;;2056025;28;20306;-69
2023/06/01 02:58:42;;;;;;;5.03;3.77;;;10.30;84.10;;;;;;2063777;28;20240;-69
2023/06/01 02:59:42;;;;;;;8.48;3.63;;;10.30;83.80;;;;;;2063728;28;20319;-69
2023/06/01 03:00:43;;;;;;;4.47;3.40;;;10.30;83.80;;;;;;2059518;28;20222;-69
2023/06/01 03:01:44;;;;;;;4.57;3.60;;;10.30;83.80;;;;;;2060589;28;20233;-69
2023/06/01 03:02:45;;;;;;;6.57;3.50;;;10.30;84.00;;;;;;2063680;28;20293;-69
2023/06/01 03:03:47;;;;;;;6.10;3.50;;;10.30;83.90;;;;;;2059974;28;20226;-69
2023/06/01 03:04:48;;;;;;;5.13;3.53;;;10.30;83.70;;;;;;2059466;28;20646;-69
2023/06/01 03:05:49;;;;;;;7.22;3.75;;;10.30;83.70;;;;;;2057869;28;20232;-69
2023/06/01 03:06:50;;;;;;;6.57;3.57;;;10.30;83.70;;;;;;2063561;28;20734;-69
2023/06/01 03:07:50;;;;;;;5.30;4.17;;;10.30;83.80;;;;;;2064071;28;20261;-69
2023/06/01 03:08:51;;;;;;;5.47;4.00;;;10.50;84.20;;;;;;2059756;28;20224;-69
2023/06/01 03:09:52;;;;;;;4.87;3.70;;;10.30;84.10;;;;;;2049678;28;20237;-69
2023/06/01 03:10:53;;;;;;;4.30;3.43;;;10.40;83.90;;;;;;2063507;28;20625;-69
2023/06/01 03:11:54;;;;;;;4.10;3.43;;;10.50;84.00;;;;;;2058771;28;20286;-69
2023/06/01 03:12:55;;;;;;;4.95;3.50;;;10.40;83.70;;;;;;2054249;28;20713;-69
2023/06/01 03:13:56;;;;;;;4.37;3.57;;;10.30;83.80;;;;;;2062930;28;20225;-68
2023/06/01 03:14:57;;;;;;;5.32;4.07;;;10.30;83.80;;;;;;2063493;28;20233;-70
2023/06/01 03:15:58;;;;;;;10.43;3.80;;;10.30;83.90;;;;;;2060723;28;20214;-69
2023/06/01 03:16:58;;;;;;;7.30;3.77;;;10.30;84.20;;;;;;2069964;28;20221;-69
2023/06/01 03:18:01;;;;;;;5.03;3.70;;;10.30;84.10;;;;;;2060661;28;20217;-71
2023/06/01 03:19:01;;;;;;;4.35;3.40;;;10.30;84.70;;;;;;2060069;28;20187;-71
2023/06/01 03:20:03;;;;;;;7.20;3.47;;;10.30;85.20;;;;;;2060156;28;20211;-70
2023/06/01 03:21:04;;;;;;;5.88;3.85;;;10.30;85.10;;;;;;2060360;28;20226;-69
2023/06/01 03:22:05;;;;;;;7.80;4.23;;;10.20;85.00;;;;;;2063924;28;20189;-69
2023/06/01 03:23:06;;;;;;;8.38;3.90;;;10.30;85.10;;;;;;2055749;28;20188;-70
2023/06/01 03:24:07;;;;;;;5.30;3.83;;;10.30;84.80;;;;;;2065700;28;20234;-69
2023/06/01 03:25:11;;;;;;;6.22;3.90;;;10.30;84.70;;;;;;2068447;28;20229;-69
2023/06/01 03:26:12;;;;;;;7.07;3.80;;;10.40;84.90;;;;;;2060743;28;20186;-69
2023/06/01 03:27:13;;;;;;;4.85;3.38;;;10.20;85.00;;;;;;2056351;28;20312;-70
2023/06/01 03:28:14;;;;;;;5.45;3.60;;;10.30;85.40;;;;;;2057953;28;20742;-70
2023/06/01 03:29:15;;;;;;;6.18;3.67;;;10.30;85.00;;;;;;2059958;28;20677;-69
2023/06/01 03:30:16;;;;;;;6.32;3.72;;;10.30;85.00;;;;;;2060143;28;20201;-69
2023/06/01 03:31:18;;;;;;;5.13;3.63;;;10.50;85.00;;;;;;2054650;28;20271;-69
2023/06/01 03:32:19;;;;;;;6.75;4.00;;;10.30;84.70;;;;;;2053795;28;20230;-69
2023/06/01 03:33:20;;;;;;;4.33;3.53;;;10.40;84.70;;;;;;2056514;28;20245;-69
2023/06/01 03:34:21;;;;;;;5.63;3.30;;;10.30;84.80;;;;;;2059820;28;20771;-71
2023/06/01 03:35:22;;;;;;;6.07;3.92;;;10.30;85.30;;;;;;2068197;28;20245;-69
2023/06/01 03:36:22;;;;;;;6.57;3.93;;;10.30;85.50;;;;;;2064656;28;20232;-69
2023/06/01 03:37:23;;;;;;;6.37;3.90;;;10.20;85.80;;;;;;2051962;28;20390;-69
2023/06/01 03:38:24;;;;;;;6.50;4.37;;;10.30;86.10;;;;;;2055300;28;20232;-70
2023/06/01 03:39:25;;;;;;;5.22;3.70;;;10.30;87.10;;;;;;2060265;28;20238;-69
2023/06/01 03:40:26;;;;;;;6.63;3.65;;;10.30;86.00;;;;;;2057427;28;20420;-69
2023/06/01 03:41:27;;;;;;;5.60;3.55;;;10.30;86.00;;;;;;2061640;28;20382;-69
2023/06/01 03:42:28;;;;;;;4.47;3.80;;;10.30;86.00;;;;;;2060614;28;20230;-69
2023/06/01 03:43:28;;;;;;;6.57;4.10;;;10.30;85.40;;;;;;2063523;28;20785;-69
2023/06/01 03:44:29;;;;;;;5.47;3.60;;;10.30;85.40;;;;;;2059354;28;20234;-69
2023/06/01 03:45:31;;;;;;;6.53;3.58;;;10.40;85.20;;;;;;2059769;28;20240;-69
2023/06/01 03:46:32;;;;;;;9.38;3.75;;;10.30;85.10;;;;;;2049010;28;20243;-70
2023/06/01 03:47:33;;;;;;;4.27;3.20;;;10.30;85.20;;;;;;2059606;28;20720;-69
2023/06/01 03:48:34;;;;;;;4.22;3.38;;;10.40;85.50;;;;;;2059284;28;20224;-68
2023/06/01 03:49:35;;;;;;;6.43;3.57;;;10.30;85.60;;;;;;2055485;28;20389;-68
2023/06/01 03:50:36;;;;;;;6.07;3.80;;;10.20;85.80;;;;;;2063678;28;20237;-69
2023/06/01 03:51:38;;;;;;;6.50;3.63;;;10.30;85.80;;;;;;2064076;28;20320;-69
2023/06/01 03:52:39;;;;;;;4.43;3.28;;;10.30;85.70;;;;;;2054529;28;20275;-69
2023/06/01 03:53:40;;;;;;;4.68;3.70;;;10.30;85.60;;;;;;2045265;28;20247;-68
2023/06/01 03:54:40;;;;;;;5.70;3.90;;;10.30;85.60;;;;;;2048554;28;20300;-69
2023/06/01 03:55:41;;;;;;;6.57;4.20;;;10.30;85.60;;;;;;2062810;28;20245;-69
2023/06/01 03:56:42;;;;;;;5.60;3.70;;;10.30;85.70;;;;;;2070394;28;20301;-69
2023/06/01 03:57:43;;;;;;;4.53;3.60;;;10.30;85.70;;;;;;2058896;28;20317;-69
2023/06/01 03:58:43;;;;;;;6.03;4.20;;;10.30;85.90;;;;;;2057033;28;20962;-69
2023/06/01 03:59:46;;;;;;;6.03;3.57;;;10.30;86.10;;;;;;2055360;28;20244;-69
2023/06/01 04:00:47;;;;;;;5.53;3.90;;;10.30;87.60;;;;;;2055785;28;20285;-69
2023/06/01 04:01:49;;;;;;;7.30;4.53;;;10.30;86.40;;;;;;2064341;28;20731;-69
2023/06/01 04:02:58;;;;;;;8.20;3.90;;;10.30;86.20;;;;;;2061836;28;20917;-70
2023/06/01 04:03:59;;;;;;;5.43;3.50;;;10.40;86.00;;;;;;2059515;28;20307;-69
2023/06/01 04:05:00;;;;;;;5.90;3.55;;;10.40;86.10;;;;;;2054866;28;20236;-71
2023/06/01 04:06:01;;;;;;;5.50;4.03;;;10.40;86.10;;;;;;2062646;28;20196;-70
2023/06/01 04:07:04;;;;;;;6.72;3.58;;;10.30;86.00;;;;;;2062708;28;20645;-72
2023/06/01 04:08:05;;;;;;;8.00;4.40;;;10.30;86.10;;;;;;2063457;28;20236;-69
2023/06/01 04:09:09;;;;;;;4.97;4.00;;;10.40;85.80;;;;;;2063664;28;20190;-69
2023/06/01 04:10:12;;;;;;;7.50;4.75;;;10.30;86.10;;;;;;2067560;28;20235;-69
2023/06/01 04:11:13;;;;;;;4.70;3.75;;;10.30;86.30;;;;;;2063736;28;20197;-69
2023/06/01 04:12:15;;;;;;;5.18;3.70;;;10.30;86.40;;;;;;2059083;28;20226;-70
2023/06/01 04:13:16;;;;;;;5.72;3.70;;;10.40;87.80;;;;;;2047413;28;20193;-70
2023/06/01 04:14:16;;;;;;;6.27;4.27;;;10.20;86.60;;;;;;2044239;29;20202;-69
2023/06/01 04:15:20;;;;;;;5.90;3.73;;;10.20;87.30;;;;;;2046379;28;20206;-69
2023/06/01 04:16:21;;;;;;;6.20;4.13;;;10.20;87.60;;;;;;2053262;28;20296;-69
2023/06/01 04:17:22;;;;;;;5.60;3.17;;;10.20;87.60;;;;;;2056718;28;20237;-69
2023/06/01 04:18:22;;;;;;;5.68;3.13;;;10.10;88.10;;;;;;2055045;28;20731;-69
2023/06/01 04:19:23;;;;;;;6.07;3.07;;;10.20;88.20;;;;;;2059851;28;20245;-69
2023/06/01 04:20:24;;;;;;;8.60;3.70;;;10.30;87.80;;;;;;2058842;28;20253;-69
2023/06/01 04:21:25;;;;;;;3.60;3.13;;;10.30;87.40;;;;;;2059271;28;20241;-69
2023/06/01 04:22:27;;;;;;;6.83;3.97;;;10.60;88.30;;;;;;2061392;28;20226;-70
2023/06/01 04:23:28;;;;;;;6.25;3.63;;;10.40;86.80;;;;;;2064014;28;20727;-70
2023/06/01 04:24:28;;;;;;;6.27;3.77;;;10.40;86.60;;;;;;2067521;28;20233;-69
2023/06/01 04:25:30;;;;;;;5.97;3.50;;;10.50;86.60;;;;;;2057282;28;20238;-69
2023/06/01 04:26:35;;;;;;;5.47;3.58;;;10.60;86.30;;;;;;2059876;28;20230;-69
2023/06/01 04:27:36;;;;;;;5.10;3.42;;;10.50;86.20;;;;;;2054153;28;20301;-69
2023/06/01 04:28:43;;;;;;;4.77;3.50;;;10.60;86.30;;;;;;2054726;28;20320;-70
2023/06/01 04:29:44;;;;;;;6.15;3.55;;;10.70;86.30;;;;;;2044037;28;20239;-69
2023/06/01 04:30:47;;;;;;;4.43;3.83;;;10.60;87.50;;;;;;2054718;28;20329;-70
2023/06/01 04:31:48;;;;;;;6.97;4.22;;;10.60;86.30;;;;;;2053875;28;20294;-70
2023/06/01 04:32:49;;;;;;;5.33;3.60;;;10.60;86.30;;;;;;2050266;28;20238;-69
2023/06/01 04:33:53;;;;;;;7.25;3.85;;;10.70;87.50;;;;;;2063472;28;20332;-70
2023/06/01 04:34:56;;;;;;;6.53;3.63;;;10.70;86.40;;;;;;2055753;28;20301;-70
2023/06/01 04:35:57;;;;;;;6.57;4.03;;;10.70;86.30;;;;;;2063002;28;20350;-69
2023/06/01 04:36:59;;;;;;;4.13;3.37;;;10.70;86.00;;;;;;2063022;28;20229;-69
2023/06/01 04:38:00;;;;;;;5.75;4.45;;;10.80;85.90;;;;;;2057613;28;20325;-72
2023/06/01 04:39:04;;;;;;;4.18;3.22;;;10.80;85.70;;;;;;2056124;28;20183;-70
2023/06/01 04:40:07;;;;;;;6.32;3.65;;;10.70;85.60;;;;;;2047730;28;20214;-70
2023/06/01 04:41:12;;;;;;;4.80;3.45;;;10.80;85.60;;;;;;2054351;28;20190;-70
2023/06/01 04:42:13;;;;;;;6.57;3.85;;;10.80;85.40;;;;;;2049189;28;20179;-70
2023/06/01 04:43:18;;;;;;;6.30;3.35;;;10.80;85.00;;;;;;2057592;28;20251;-69
2023/06/01 04:44:21;;;;;;;6.97;3.75;;;10.80;85.00;;;;;;2065972;28;20229;-69
2023/06/01 04:45:25;;;;;;;5.65;3.58;;;10.90;85.30;;;;;;2058272;28;20262;-69
2023/06/01 04:46:27;;;;;;;4.85;3.10;;;10.90;85.80;;;;;;2046808;28;20695;-69
2023/06/01 04:47:28;;;;;;;7.00;3.78;;;10.80;85.70;;;;;;2055848;28;20316;-70
2023/06/01 04:48:30;;;;;;;5.85;3.63;;;10.90;86.30;;;;;;2055705;28;20240;-69
2023/06/01 04:49:34;;;;;;;7.22;3.58;;;10.90;86.00;;;;;;2055805;28;20294;-69
2023/06/01 04:50:35;;;;;;;5.05;3.50;;;10.90;86.20;;;;;;2061175;28;20237;-68
2023/06/01 04:51:36;;;;;;;6.37;4.07;;;11.00;85.50;;;;;;2056284;28;20358;-69
2023/06/01 04:52:39;;;;;;;5.13;3.20;;;11.10;84.80;;;;;;2047469;29;21341;-69
2023/06/01 04:53:40;;;;;;;4.32;3.50;;;11.00;84.40;;;;;;2058396;28;20256;-70
2023/06/01 04:54:41;;;;;;;7.00;3.33;;;11.10;84.10;;;;;;2068862;28;20229;-70
2023/06/01 04:55:44;;;;;;;7.33;3.60;;;11.10;83.80;;;;;;2062320;28;20243;-69
2023/06/01 04:56:44;;;;;;;4.78;3.40;;;11.20;83.60;;;;;;2049014;28;20227;-69
2023/06/01 04:57:45;;;;;;;4.73;3.63;;;11.30;83.40;;;;;;2055759;28;20253;-70
2023/06/01 04:58:51;;;;;;;5.87;3.83;;;11.30;83.20;;;;;;2051073;28;20233;-70
2023/06/01 04:59:56;;;;;;;5.78;3.80;;;11.30;82.50;;;;;;2054729;28;20227;-70
2023/06/01 05:00:57;;;;;;;4.15;3.40;;;11.40;82.40;;;;;;2054268;28;20224;-70
2023/06/01 05:02:01;;;;;;;6.78;3.90;;;11.40;82.50;;;;;;2061330;28;20215;-69
2023/06/01 05:03:03;;;;;;;4.57;3.78;;;11.40;82.70;;;;;;2060875;28;20245;-70
2023/06/01 05:04:04;;;;;;;4.47;3.20;;;11.50;82.50;;;;;;2062952;28;20265;-69
2023/06/01 05:05:06;;;;;;;5.70;4.00;;;11.50;82.30;;;;;;2063263;28;20183;-70
2023/06/01 05:06:07;;;;;;;9.95;3.95;;;11.50;82.20;;;;;;2039932;28;20206;-70
2023/06/01 05:07:08;;;;;;;4.37;3.53;;;11.60;82.60;;;;;;2038268;28;20602;-69
2023/06/01 05:08:09;;;;;;;4.57;3.70;;;11.70;82.40;;;;;;2055771;28;20421;-70
2023/06/01 05:09:09;;;;;;;7.67;4.30;;;11.60;81.60;;;;;;2059095;28;20186;-70
2023/06/01 05:10:12;;;;;;;6.27;4.13;;;11.70;81.60;;;;;;2060120;28;20680;-72
2023/06/01 05:11:13;;;;;;;5.28;3.60;;;11.60;82.10;;;;;;2054771;28;20191;-70
2023/06/01 05:12:14;;;;;;;6.28;3.95;;;11.60;83.30;;;;;;2052679;28;20198;-70
2023/06/01 05:13:15;;;;;;;8.63;4.73;;;11.60;82.20;;;;;;2045630;28;20294;-69
2023/06/01 05:14:16;;;;;;;7.60;3.50;;;11.70;82.10;;;;;;2049348;28;20200;-69
2023/06/01 05:15:17;;;;;;;4.88;3.70;;;11.70;82.30;;;;;;2051402;28;20199;-69
2023/06/01 05:16:18;;;;;;;6.17;4.00;;;11.70;82.10;;;;;;2059950;28;20237;-69
2023/06/01 05:17:18;;;;;;;5.83;3.87;;;11.80;81.80;;;;;;2062867;28;20194;-69
2023/06/01 05:18:19;;;;;;;7.17;4.10;;;11.90;81.60;;;;;;2062251;28;20237;-69
2023/06/01 05:19:21;;;;;;;4.83;3.20;;;11.90;81.40;;;;;;2063503;28;20241;-69
2023/06/01 05:20:21;;;;;;;8.73;3.60;;;11.90;81.20;;;;;;2061582;28;20241;-69
2023/06/01 05:21:22;;;;;;;4.57;3.60;;;12.00;81.00;;;;;;2059467;28;20712;-69
2023/06/01 05:22:24;;;;;;;6.57;3.90;;;12.00;81.10;;;;;;2064406;28;20306;-69
2023/06/01 05:23:27;;;;;;;9.48;4.38;;;12.00;81.00;;;;;;2058352;28;20313;-69
2023/06/01 05:24:28;;;;;;;6.97;3.88;;;12.10;81.40;;;;;;2053929;28;20286;-69
2023/06/01 05:25:29;;;;;;;7.33;3.87;;;12.10;81.70;;;;;;2058014;28;20305;-69
2023/06/01 05:26:30;;;;;;;4.95;3.72;;;12.10;81.50;;;;;;2063389;28;20227;-69
2023/06/01 05:27:31;;;;;;;7.50;4.03;;;13.20;82.30;;;;;;2058343;28;20234;-69
2023/06/01 05:28:35;;;;;;;5.63;3.33;;;12.10;81.30;;;;;;2050420;28;20267;-69